sensor_id;sensor_type;location;lat;lon;timestamp;temperature;humidity
44117;DHT22;29781;49.480;8.512;2022-07-17T00:01:27;18.80;82.10
44117;DHT22;29781;49.480;8.512;2022-07-17T00:03:53;19.00;81.80
44117;DHT22;29781;49.480;8.512;2022-07-17T00:06:19;19.30;81.40
44117;DHT22;29781;49.480;8.512;2022-07-17T00:08:44;19.30;80.30
44117;DHT22;29781;49.480;8.512;2022-07-17T00:11:10;19.00;80.90
44117;DHT22;29781;49.480;8.512;2022-07-17T00:13:36;18.70;81.60
44117;DHT22;29781;49.480;8.512;2022-07-17T00:16:02;18.50;82.60
44117;DHT22;29781;49.480;8.512;2022-07-17T00:18:27;18.20;84.20
44117;DHT22;29781;49.480;8.512;2022-07-17T00:20:53;18.10;84.40
44117;DHT22;29781;49.480;8.512;2022-07-17T00:23:19;18.00;84.30
44117;DHT22;29781;49.480;8.512;2022-07-17T00:25:45;18.00;84.60
44117;DHT22;29781;49.480;8.512;2022-07-17T00:28:12;18.00;84.70
44117;DHT22;29781;49.480;8.512;2022-07-17T00:30:37;18.20;84.40
44117;DHT22;29781;49.480;8.512;2022-07-17T00:33:03;18.40;83.70
44117;DHT22;29781;49.480;8.512;2022-07-17T00:35:29;18.60;83.30
44117;DHT22;29781;49.480;8.512;2022-07-17T00:37:55;18.70;82.80
44117;DHT22;29781;49.480;8.512;2022-07-17T00:40:22;18.60;82.60
44117;DHT22;29781;49.480;8.512;2022-07-17T00:42:49;18.50;82.60
44117;DHT22;29781;49.480;8.512;2022-07-17T00:45:16;18.50;83.20
44117;DHT22;29781;49.480;8.512;2022-07-17T00:47:57;18.60;83.00
44117;DHT22;29781;49.480;8.512;2022-07-17T00:50:28;18.70;82.80
44117;DHT22;29781;49.480;8.512;2022-07-17T00:52:54;18.60;83.00
44117;DHT22;29781;49.480;8.512;2022-07-17T00:55:20;18.60;83.40
44117;DHT22;29781;49.480;8.512;2022-07-17T00:57:49;18.70;83.20
44117;DHT22;29781;49.480;8.512;2022-07-17T01:00:16;18.60;83.10
44117;DHT22;29781;49.480;8.512;2022-07-17T01:02:50;18.40;83.60
44117;DHT22;29781;49.480;8.512;2022-07-17T01:05:17;18.30;83.70
44117;DHT22;29781;49.480;8.512;2022-07-17T01:07:44;18.40;83.70
44117;DHT22;29781;49.480;8.512;2022-07-17T01:10:10;18.60;83.30
44117;DHT22;29781;49.480;8.512;2022-07-17T01:12:37;18.60;82.80
44117;DHT22;29781;49.480;8.512;2022-07-17T01:15:03;18.60;82.40
44117;DHT22;29781;49.480;8.512;2022-07-17T01:17:30;18.60;82.60
44117;DHT22;29781;49.480;8.512;2022-07-17T01:19:56;18.60;82.90
44117;DHT22;29781;49.480;8.512;2022-07-17T01:22:22;18.50;83.70
44117;DHT22;29781;49.480;8.512;2022-07-17T01:24:48;18.30;84.70
44117;DHT22;29781;49.480;8.512;2022-07-17T01:27:14;18.30;85.20
44117;DHT22;29781;49.480;8.512;2022-07-17T01:29:40;18.40;84.70
44117;DHT22;29781;49.480;8.512;2022-07-17T01:32:06;18.40;84.70
44117;DHT22;29781;49.480;8.512;2022-07-17T01:34:32;18.50;84.90
44117;DHT22;29781;49.480;8.512;2022-07-17T01:36:58;18.40;85.20
44117;DHT22;29781;49.480;8.512;2022-07-17T01:39:24;18.50;84.90
44117;DHT22;29781;49.480;8.512;2022-07-17T01:42:09;18.60;84.50
44117;DHT22;29781;49.480;8.512;2022-07-17T01:44:35;18.60;84.30
44117;DHT22;29781;49.480;8.512;2022-07-17T01:47:01;18.70;84.30
44117;DHT22;29781;49.480;8.512;2022-07-17T01:49:26;18.60;84.20
44117;DHT22;29781;49.480;8.512;2022-07-17T01:51:52;18.50;84.80
44117;DHT22;29781;49.480;8.512;2022-07-17T01:54:18;18.40;85.40
44117;DHT22;29781;49.480;8.512;2022-07-17T01:56:43;18.30;85.90
44117;DHT22;29781;49.480;8.512;2022-07-17T01:59:09;18.40;85.50
44117;DHT22;29781;49.480;8.512;2022-07-17T02:01:35;18.40;85.80
44117;DHT22;29781;49.480;8.512;2022-07-17T02:04:00;18.20;85.70
44117;DHT22;29781;49.480;8.512;2022-07-17T02:06:26;18.10;85.80
44117;DHT22;29781;49.480;8.512;2022-07-17T02:08:52;18.00;86.60
44117;DHT22;29781;49.480;8.512;2022-07-17T02:11:18;17.90;87.20
44117;DHT22;29781;49.480;8.512;2022-07-17T02:13:44;17.70;87.80
44117;DHT22;29781;49.480;8.512;2022-07-17T02:16:09;17.60;88.30
44117;DHT22;29781;49.480;8.512;2022-07-17T02:18:36;17.50;88.10
44117;DHT22;29781;49.480;8.512;2022-07-17T02:21:02;17.40;88.90
44117;DHT22;29781;49.480;8.512;2022-07-17T02:23:27;17.10;89.00
44117;DHT22;29781;49.480;8.512;2022-07-17T02:25:54;17.00;89.50
44117;DHT22;29781;49.480;8.512;2022-07-17T02:28:20;17.30;89.20
44117;DHT22;29781;49.480;8.512;2022-07-17T02:30:46;17.40;88.80
44117;DHT22;29781;49.480;8.512;2022-07-17T02:33:12;17.40;88.70
44117;DHT22;29781;49.480;8.512;2022-07-17T02:35:37;17.30;89.30
44117;DHT22;29781;49.480;8.512;2022-07-17T02:38:03;17.30;89.70
44117;DHT22;29781;49.480;8.512;2022-07-17T02:40:29;17.20;90.00
44117;DHT22;29781;49.480;8.512;2022-07-17T02:42:54;17.30;90.00
44117;DHT22;29781;49.480;8.512;2022-07-17T02:45:20;17.20;90.60
44117;DHT22;29781;49.480;8.512;2022-07-17T02:47:50;17.30;90.50
44117;DHT22;29781;49.480;8.512;2022-07-17T02:50:16;17.50;90.00
44117;DHT22;29781;49.480;8.512;2022-07-17T02:52:42;17.40;89.70
44117;DHT22;29781;49.480;8.512;2022-07-17T02:55:10;17.20;89.70
44117;DHT22;29781;49.480;8.512;2022-07-17T02:57:36;17.20;89.40
44117;DHT22;29781;49.480;8.512;2022-07-17T03:00:05;17.30;88.90
44117;DHT22;29781;49.480;8.512;2022-07-17T03:02:31;17.30;89.00
44117;DHT22;29781;49.480;8.512;2022-07-17T03:04:57;17.40;88.60
44117;DHT22;29781;49.480;8.512;2022-07-17T03:07:22;17.10;88.90
44117;DHT22;29781;49.480;8.512;2022-07-17T03:09:48;16.80;89.70
44117;DHT22;29781;49.480;8.512;2022-07-17T03:12:14;16.60;90.40
44117;DHT22;29781;49.480;8.512;2022-07-17T03:14:39;16.40;90.80
44117;DHT22;29781;49.480;8.512;2022-07-17T03:17:05;16.30;90.90
44117;DHT22;29781;49.480;8.512;2022-07-17T03:19:31;16.20;91.10
44117;DHT22;29781;49.480;8.512;2022-07-17T03:21:57;16.30;90.90
44117;DHT22;29781;49.480;8.512;2022-07-17T03:24:22;16.30;90.80
44117;DHT22;29781;49.480;8.512;2022-07-17T03:26:48;16.50;90.60
44117;DHT22;29781;49.480;8.512;2022-07-17T03:29:14;16.40;90.50
44117;DHT22;29781;49.480;8.512;2022-07-17T03:31:46;16.50;90.30
44117;DHT22;29781;49.480;8.512;2022-07-17T03:34:11;16.40;90.50
44117;DHT22;29781;49.480;8.512;2022-07-17T03:36:37;16.40;90.80
44117;DHT22;29781;49.480;8.512;2022-07-17T03:39:09;16.30;91.00
44117;DHT22;29781;49.480;8.512;2022-07-17T03:41:35;16.40;91.00
44117;DHT22;29781;49.480;8.512;2022-07-17T03:44:01;16.40;91.00
44117;DHT22;29781;49.480;8.512;2022-07-17T03:46:27;16.40;90.60
44117;DHT22;29781;49.480;8.512;2022-07-17T03:48:52;16.80;90.40
44117;DHT22;29781;49.480;8.512;2022-07-17T03:51:18;16.80;89.90
44117;DHT22;29781;49.480;8.512;2022-07-17T03:53:44;16.60;90.50
44117;DHT22;29781;49.480;8.512;2022-07-17T03:56:10;16.50;90.70
44117;DHT22;29781;49.480;8.512;2022-07-17T03:58:35;16.50;90.80
44117;DHT22;29781;49.480;8.512;2022-07-17T04:01:01;16.60;90.70
44117;DHT22;29781;49.480;8.512;2022-07-17T04:03:27;16.60;90.80
44117;DHT22;29781;49.480;8.512;2022-07-17T04:05:53;16.70;91.00
44117;DHT22;29781;49.480;8.512;2022-07-17T04:08:19;16.70;91.00
44117;DHT22;29781;49.480;8.512;2022-07-17T04:10:45;16.80;90.90
44117;DHT22;29781;49.480;8.512;2022-07-17T04:13:11;16.80;90.90
44117;DHT22;29781;49.480;8.512;2022-07-17T04:15:37;16.70;91.10
44117;DHT22;29781;49.480;8.512;2022-07-17T04:18:20;16.80;91.20
44117;DHT22;29781;49.480;8.512;2022-07-17T04:20:47;16.80;91.10
44117;DHT22;29781;49.480;8.512;2022-07-17T04:23:13;17.00;90.70
44117;DHT22;29781;49.480;8.512;2022-07-17T04:25:39;17.00;90.30
44117;DHT22;29781;49.480;8.512;2022-07-17T04:28:05;17.20;90.10
44117;DHT22;29781;49.480;8.512;2022-07-17T04:30:31;17.30;89.30
44117;DHT22;29781;49.480;8.512;2022-07-17T04:32:57;17.50;89.30
44117;DHT22;29781;49.480;8.512;2022-07-17T04:35:23;17.40;89.60
44117;DHT22;29781;49.480;8.512;2022-07-17T04:37:48;17.50;89.40
44117;DHT22;29781;49.480;8.512;2022-07-17T04:40:14;17.40;88.90
44117;DHT22;29781;49.480;8.512;2022-07-17T04:42:40;17.30;89.50
44117;DHT22;29781;49.480;8.512;2022-07-17T04:45:06;17.40;89.00
44117;DHT22;29781;49.480;8.512;2022-07-17T04:47:33;17.50;88.50
44117;DHT22;29781;49.480;8.512;2022-07-17T04:49:59;17.40;89.30
44117;DHT22;29781;49.480;8.512;2022-07-17T04:52:25;17.50;88.90
44117;DHT22;29781;49.480;8.512;2022-07-17T04:54:50;17.80;88.50
44117;DHT22;29781;49.480;8.512;2022-07-17T04:57:16;17.80;88.40
44117;DHT22;29781;49.480;8.512;2022-07-17T04:59:42;17.90;87.70
44117;DHT22;29781;49.480;8.512;2022-07-17T05:02:08;17.90;87.60
44117;DHT22;29781;49.480;8.512;2022-07-17T05:04:33;17.90;88.20
44117;DHT22;29781;49.480;8.512;2022-07-17T05:06:59;18.10;88.00
44117;DHT22;29781;49.480;8.512;2022-07-17T05:09:25;18.00;87.70
44117;DHT22;29781;49.480;8.512;2022-07-17T05:11:50;18.00;88.50
44117;DHT22;29781;49.480;8.512;2022-07-17T05:14:16;18.10;87.80
44117;DHT22;29781;49.480;8.512;2022-07-17T05:16:42;18.10;88.40
44117;DHT22;29781;49.480;8.512;2022-07-17T05:19:08;18.20;87.90
44117;DHT22;29781;49.480;8.512;2022-07-17T05:21:33;18.30;87.40
44117;DHT22;29781;49.480;8.512;2022-07-17T05:23:59;18.30;87.50
44117;DHT22;29781;49.480;8.512;2022-07-17T05:26:25;18.30;87.80
44117;DHT22;29781;49.480;8.512;2022-07-17T05:28:52;18.30;87.90
44117;DHT22;29781;49.480;8.512;2022-07-17T05:31:17;18.40;88.00
44117;DHT22;29781;49.480;8.512;2022-07-17T05:33:44;18.50;87.00
44117;DHT22;29781;49.480;8.512;2022-07-17T05:36:10;18.70;87.80
44117;DHT22;29781;49.480;8.512;2022-07-17T05:38:36;18.80;86.20
44117;DHT22;29781;49.480;8.512;2022-07-17T05:41:03;19.00;86.40
44117;DHT22;29781;49.480;8.512;2022-07-17T05:43:29;18.90;87.10
44117;DHT22;29781;49.480;8.512;2022-07-17T05:45:56;19.10;86.50
44117;DHT22;29781;49.480;8.512;2022-07-17T05:48:22;19.20;86.10
44117;DHT22;29781;49.480;8.512;2022-07-17T05:50:47;19.40;85.70
44117;DHT22;29781;49.480;8.512;2022-07-17T05:53:13;19.30;86.00
44117;DHT22;29781;49.480;8.512;2022-07-17T05:55:40;19.40;86.10
44117;DHT22;29781;49.480;8.512;2022-07-17T05:58:06;19.60;85.00
44117;DHT22;29781;49.480;8.512;2022-07-17T06:00:31;19.70;83.80
44117;DHT22;29781;49.480;8.512;2022-07-17T06:02:57;19.60;83.30
44117;DHT22;29781;49.480;8.512;2022-07-17T06:05:23;19.80;83.40
44117;DHT22;29781;49.480;8.512;2022-07-17T06:07:48;19.90;83.20
44117;DHT22;29781;49.480;8.512;2022-07-17T06:10:14;19.90;82.70
44117;DHT22;29781;49.480;8.512;2022-07-17T06:12:40;20.00;82.60
44117;DHT22;29781;49.480;8.512;2022-07-17T06:15:06;20.00;82.50
44117;DHT22;29781;49.480;8.512;2022-07-17T06:17:31;20.10;82.60
44117;DHT22;29781;49.480;8.512;2022-07-17T06:19:57;20.20;82.80
44117;DHT22;29781;49.480;8.512;2022-07-17T06:22:23;20.10;81.40
44117;DHT22;29781;49.480;8.512;2022-07-17T06:24:49;20.20;81.90
44117;DHT22;29781;49.480;8.512;2022-07-17T06:27:14;20.10;81.50
44117;DHT22;29781;49.480;8.512;2022-07-17T06:29:40;20.20;81.90
44117;DHT22;29781;49.480;8.512;2022-07-17T06:32:06;20.30;81.90
44117;DHT22;29781;49.480;8.512;2022-07-17T06:34:32;20.20;81.80
44117;DHT22;29781;49.480;8.512;2022-07-17T06:36:57;20.20;81.50
44117;DHT22;29781;49.480;8.512;2022-07-17T06:39:23;20.40;81.40
44117;DHT22;29781;49.480;8.512;2022-07-17T06:41:49;20.50;80.80
44117;DHT22;29781;49.480;8.512;2022-07-17T06:44:14;20.10;80.00
44117;DHT22;29781;49.480;8.512;2022-07-17T06:46:40;19.80;81.60
44117;DHT22;29781;49.480;8.512;2022-07-17T06:49:06;19.90;83.10
44117;DHT22;29781;49.480;8.512;2022-07-17T06:51:31;20.10;82.70
44117;DHT22;29781;49.480;8.512;2022-07-17T06:53:57;20.10;81.40
44117;DHT22;29781;49.480;8.512;2022-07-17T06:56:23;20.20;81.70
44117;DHT22;29781;49.480;8.512;2022-07-17T06:58:48;20.10;79.90
44117;DHT22;29781;49.480;8.512;2022-07-17T07:01:14;20.10;81.40
44117;DHT22;29781;49.480;8.512;2022-07-17T07:03:40;20.20;80.30
44117;DHT22;29781;49.480;8.512;2022-07-17T07:06:06;20.30;80.60
44117;DHT22;29781;49.480;8.512;2022-07-17T07:08:33;20.60;80.00
44117;DHT22;29781;49.480;8.512;2022-07-17T07:11:01;20.70;79.20
44117;DHT22;29781;49.480;8.512;2022-07-17T07:13:26;20.90;79.60
44117;DHT22;29781;49.480;8.512;2022-07-17T07:15:52;21.10;78.40
44117;DHT22;29781;49.480;8.512;2022-07-17T07:18:18;21.30;77.90
44117;DHT22;29781;49.480;8.512;2022-07-17T07:20:43;21.20;77.40
44117;DHT22;29781;49.480;8.512;2022-07-17T07:23:09;21.30;77.70
44117;DHT22;29781;49.480;8.512;2022-07-17T07:25:35;21.20;77.00
44117;DHT22;29781;49.480;8.512;2022-07-17T07:28:02;21.20;77.50
44117;DHT22;29781;49.480;8.512;2022-07-17T07:30:28;21.00;76.80
44117;DHT22;29781;49.480;8.512;2022-07-17T07:32:53;21.20;77.20
44117;DHT22;29781;49.480;8.512;2022-07-17T07:35:19;21.20;77.20
44117;DHT22;29781;49.480;8.512;2022-07-17T07:37:45;21.20;76.60
44117;DHT22;29781;49.480;8.512;2022-07-17T07:40:11;21.40;76.10
44117;DHT22;29781;49.480;8.512;2022-07-17T07:42:37;21.30;75.00
44117;DHT22;29781;49.480;8.512;2022-07-17T07:45:03;21.30;75.90
44117;DHT22;29781;49.480;8.512;2022-07-17T07:47:29;21.40;75.40
44117;DHT22;29781;49.480;8.512;2022-07-17T07:49:55;21.50;73.70
44117;DHT22;29781;49.480;8.512;2022-07-17T07:52:20;21.50;74.10
44117;DHT22;29781;49.480;8.512;2022-07-17T07:54:46;21.70;74.70
44117;DHT22;29781;49.480;8.512;2022-07-17T07:57:12;21.90;73.90
44117;DHT22;29781;49.480;8.512;2022-07-17T07:59:37;22.00;73.80
44117;DHT22;29781;49.480;8.512;2022-07-17T08:02:04;22.00;73.90
44117;DHT22;29781;49.480;8.512;2022-07-17T08:04:30;22.00;73.10
44117;DHT22;29781;49.480;8.512;2022-07-17T08:06:56;22.00;73.80
44117;DHT22;29781;49.480;8.512;2022-07-17T08:09:21;22.10;74.80
44117;DHT22;29781;49.480;8.512;2022-07-17T08:11:47;22.30;72.60
44117;DHT22;29781;49.480;8.512;2022-07-17T08:14:13;22.30;72.90
44117;DHT22;29781;49.480;8.512;2022-07-17T08:16:39;22.50;73.20
44117;DHT22;29781;49.480;8.512;2022-07-17T08:19:04;22.30;72.40
44117;DHT22;29781;49.480;8.512;2022-07-17T08:21:30;22.40;72.40
44117;DHT22;29781;49.480;8.512;2022-07-17T08:23:56;22.40;71.90
44117;DHT22;29781;49.480;8.512;2022-07-17T08:26:21;22.50;71.40
44117;DHT22;29781;49.480;8.512;2022-07-17T08:28:47;22.50;72.20
44117;DHT22;29781;49.480;8.512;2022-07-17T08:31:12;22.60;72.60
44117;DHT22;29781;49.480;8.512;2022-07-17T08:33:38;22.70;72.00
44117;DHT22;29781;49.480;8.512;2022-07-17T08:36:04;22.80;72.20
44117;DHT22;29781;49.480;8.512;2022-07-17T08:38:30;22.90;72.40
44117;DHT22;29781;49.480;8.512;2022-07-17T08:40:56;22.90;70.60
44117;DHT22;29781;49.480;8.512;2022-07-17T08:43:24;23.00;71.00
44117;DHT22;29781;49.480;8.512;2022-07-17T08:45:50;23.20;70.70
44117;DHT22;29781;49.480;8.512;2022-07-17T08:48:17;23.20;69.00
44117;DHT22;29781;49.480;8.512;2022-07-17T08:50:44;23.20;68.00
44117;DHT22;29781;49.480;8.512;2022-07-17T08:53:10;23.10;67.70
44117;DHT22;29781;49.480;8.512;2022-07-17T08:55:36;23.20;68.50
44117;DHT22;29781;49.480;8.512;2022-07-17T08:58:02;23.30;68.60
44117;DHT22;29781;49.480;8.512;2022-07-17T09:00:30;23.60;68.00
44117;DHT22;29781;49.480;8.512;2022-07-17T09:03:05;23.60;67.30
44117;DHT22;29781;49.480;8.512;2022-07-17T09:07:59;23.70;68.80
44117;DHT22;29781;49.480;8.512;2022-07-17T09:10:36;23.80;66.70
44117;DHT22;29781;49.480;8.512;2022-07-17T09:13:14;23.80;66.60
44117;DHT22;29781;49.480;8.512;2022-07-17T09:15:40;23.90;66.20
44117;DHT22;29781;49.480;8.512;2022-07-17T09:18:06;24.00;66.00
44117;DHT22;29781;49.480;8.512;2022-07-17T09:20:32;24.10;67.20
44117;DHT22;29781;49.480;8.512;2022-07-17T09:22:58;24.00;67.10
44117;DHT22;29781;49.480;8.512;2022-07-17T09:25:46;24.00;65.60
44117;DHT22;29781;49.480;8.512;2022-07-17T09:28:13;23.70;65.90
44117;DHT22;29781;49.480;8.512;2022-07-17T09:30:42;23.80;66.50
44117;DHT22;29781;49.480;8.512;2022-07-17T09:33:14;23.70;66.10
44117;DHT22;29781;49.480;8.512;2022-07-17T09:35:48;23.90;66.10
44117;DHT22;29781;49.480;8.512;2022-07-17T09:38:27;23.90;66.30
44117;DHT22;29781;49.480;8.512;2022-07-17T09:41:03;23.90;66.50
44117;DHT22;29781;49.480;8.512;2022-07-17T09:43:42;24.10;66.20
44117;DHT22;29781;49.480;8.512;2022-07-17T09:46:11;24.20;65.40
44117;DHT22;29781;49.480;8.512;2022-07-17T09:48:42;24.30;65.20
44117;DHT22;29781;49.480;8.512;2022-07-17T09:51:13;24.40;64.90
44117;DHT22;29781;49.480;8.512;2022-07-17T09:53:39;24.10;64.90
44117;DHT22;29781;49.480;8.512;2022-07-17T09:56:08;24.30;64.90
44117;DHT22;29781;49.480;8.512;2022-07-17T09:58:35;24.30;65.00
44117;DHT22;29781;49.480;8.512;2022-07-17T10:01:04;24.40;65.30
44117;DHT22;29781;49.480;8.512;2022-07-17T10:03:30;24.60;64.70
44117;DHT22;29781;49.480;8.512;2022-07-17T10:05:57;24.60;65.50
44117;DHT22;29781;49.480;8.512;2022-07-17T10:08:23;24.80;64.90
44117;DHT22;29781;49.480;8.512;2022-07-17T10:10:50;25.20;63.80
44117;DHT22;29781;49.480;8.512;2022-07-17T10:13:16;25.20;63.90
44117;DHT22;29781;49.480;8.512;2022-07-17T10:15:42;25.50;63.10
44117;DHT22;29781;49.480;8.512;2022-07-17T10:18:08;25.60;63.10
44117;DHT22;29781;49.480;8.512;2022-07-17T10:20:34;25.40;63.10
44117;DHT22;29781;49.480;8.512;2022-07-17T10:22:59;25.30;62.70
44117;DHT22;29781;49.480;8.512;2022-07-17T10:25:36;25.30;63.20
44117;DHT22;29781;49.480;8.512;2022-07-17T10:28:02;25.30;62.60
44117;DHT22;29781;49.480;8.512;2022-07-17T10:30:29;25.20;62.90
44117;DHT22;29781;49.480;8.512;2022-07-17T10:33:00;25.20;62.80
44117;DHT22;29781;49.480;8.512;2022-07-17T10:35:27;25.40;62.10
44117;DHT22;29781;49.480;8.512;2022-07-17T10:37:58;25.40;62.20
44117;DHT22;29781;49.480;8.512;2022-07-17T10:40:25;25.50;62.40
44117;DHT22;29781;49.480;8.512;2022-07-17T10:42:59;25.70;61.80
44117;DHT22;29781;49.480;8.512;2022-07-17T10:45:36;25.80;62.10
44117;DHT22;29781;49.480;8.512;2022-07-17T10:48:07;25.80;62.00
44117;DHT22;29781;49.480;8.512;2022-07-17T10:50:44;25.60;60.80
44117;DHT22;29781;49.480;8.512;2022-07-17T10:53:19;25.40;58.20
44117;DHT22;29781;49.480;8.512;2022-07-17T10:56:03;25.30;59.50
44117;DHT22;29781;49.480;8.512;2022-07-17T10:58:34;25.40;59.60
44117;DHT22;29781;49.480;8.512;2022-07-17T11:03:33;25.40;57.80
44117;DHT22;29781;49.480;8.512;2022-07-17T11:09:02;25.50;58.00
44117;DHT22;29781;49.480;8.512;2022-07-17T11:11:48;25.70;58.40
44117;DHT22;29781;49.480;8.512;2022-07-17T11:17:01;25.90;59.00
44117;DHT22;29781;49.480;8.512;2022-07-17T11:19:35;26.10;57.90
44117;DHT22;29781;49.480;8.512;2022-07-17T11:22:03;26.20;58.50
44117;DHT22;29781;49.480;8.512;2022-07-17T11:24:46;26.20;59.00
44117;DHT22;29781;49.480;8.512;2022-07-17T11:27:27;26.30;57.80
44117;DHT22;29781;49.480;8.512;2022-07-17T11:29:54;26.10;56.80
44117;DHT22;29781;49.480;8.512;2022-07-17T11:32:20;26.00;58.30
44117;DHT22;29781;49.480;8.512;2022-07-17T11:34:46;26.10;57.80
44117;DHT22;29781;49.480;8.512;2022-07-17T11:37:12;26.20;58.30
44117;DHT22;29781;49.480;8.512;2022-07-17T11:39:42;26.20;59.50
44117;DHT22;29781;49.480;8.512;2022-07-17T11:42:11;26.20;59.70
44117;DHT22;29781;49.480;8.512;2022-07-17T11:44:37;26.40;59.60
44117;DHT22;29781;49.480;8.512;2022-07-17T11:47:03;26.30;58.90
44117;DHT22;29781;49.480;8.512;2022-07-17T11:49:39;26.30;58.50
44117;DHT22;29781;49.480;8.512;2022-07-17T11:54:47;26.20;58.80
44117;DHT22;29781;49.480;8.512;2022-07-17T11:57:14;26.30;59.30
44117;DHT22;29781;49.480;8.512;2022-07-17T11:59:41;26.40;59.50
44117;DHT22;29781;49.480;8.512;2022-07-17T12:02:12;26.40;59.60
44117;DHT22;29781;49.480;8.512;2022-07-17T12:04:49;26.40;60.80
44117;DHT22;29781;49.480;8.512;2022-07-17T12:07:16;26.40;60.10
44117;DHT22;29781;49.480;8.512;2022-07-17T12:09:42;26.40;59.40
44117;DHT22;29781;49.480;8.512;2022-07-17T12:12:20;26.40;60.10
44117;DHT22;29781;49.480;8.512;2022-07-17T12:14:57;26.50;59.50
44117;DHT22;29781;49.480;8.512;2022-07-17T12:17:24;26.40;59.60
44117;DHT22;29781;49.480;8.512;2022-07-17T12:19:51;26.40;59.80
44117;DHT22;29781;49.480;8.512;2022-07-17T12:22:17;26.50;60.00
44117;DHT22;29781;49.480;8.512;2022-07-17T12:24:45;26.50;59.00
44117;DHT22;29781;49.480;8.512;2022-07-17T12:27:16;26.50;59.60
44117;DHT22;29781;49.480;8.512;2022-07-17T12:29:43;26.60;59.00
44117;DHT22;29781;49.480;8.512;2022-07-17T12:32:17;26.60;59.10
44117;DHT22;29781;49.480;8.512;2022-07-17T12:34:47;26.60;58.80
44117;DHT22;29781;49.480;8.512;2022-07-17T12:37:21;26.80;59.90
44117;DHT22;29781;49.480;8.512;2022-07-17T12:39:48;26.90;58.90
44117;DHT22;29781;49.480;8.512;2022-07-17T12:42:17;26.90;58.20
44117;DHT22;29781;49.480;8.512;2022-07-17T12:44:43;26.90;58.30
44117;DHT22;29781;49.480;8.512;2022-07-17T12:47:09;27.00;58.30
44117;DHT22;29781;49.480;8.512;2022-07-17T12:49:35;27.10;57.20
44117;DHT22;29781;49.480;8.512;2022-07-17T12:52:01;26.90;57.40
44117;DHT22;29781;49.480;8.512;2022-07-17T12:54:27;26.90;57.50
44117;DHT22;29781;49.480;8.512;2022-07-17T12:56:53;27.00;57.80
44117;DHT22;29781;49.480;8.512;2022-07-17T12:59:18;27.10;57.00
44117;DHT22;29781;49.480;8.512;2022-07-17T13:01:45;27.10;57.00
44117;DHT22;29781;49.480;8.512;2022-07-17T13:04:14;27.20;57.20
44117;DHT22;29781;49.480;8.512;2022-07-17T13:06:40;27.30;56.60
44117;DHT22;29781;49.480;8.512;2022-07-17T13:09:06;27.30;57.00
44117;DHT22;29781;49.480;8.512;2022-07-17T13:11:32;27.40;56.10
44117;DHT22;29781;49.480;8.512;2022-07-17T13:13:58;27.50;56.50
44117;DHT22;29781;49.480;8.512;2022-07-17T13:16:24;27.70;56.50
44117;DHT22;29781;49.480;8.512;2022-07-17T13:18:50;27.80;55.40
44117;DHT22;29781;49.480;8.512;2022-07-17T13:21:16;27.70;55.30
44117;DHT22;29781;49.480;8.512;2022-07-17T13:23:41;27.70;55.50
44117;DHT22;29781;49.480;8.512;2022-07-17T13:26:07;27.80;55.90
44117;DHT22;29781;49.480;8.512;2022-07-17T13:28:33;27.80;55.50
44117;DHT22;29781;49.480;8.512;2022-07-17T13:30:59;27.90;55.60
44117;DHT22;29781;49.480;8.512;2022-07-17T13:33:25;27.90;54.70
44117;DHT22;29781;49.480;8.512;2022-07-17T13:35:51;27.90;55.10
44117;DHT22;29781;49.480;8.512;2022-07-17T13:38:19;27.90;54.50
44117;DHT22;29781;49.480;8.512;2022-07-17T13:40:45;27.90;55.40
44117;DHT22;29781;49.480;8.512;2022-07-17T13:43:10;28.00;54.80
44117;DHT22;29781;49.480;8.512;2022-07-17T13:45:36;28.00;54.00
44117;DHT22;29781;49.480;8.512;2022-07-17T13:48:03;27.90;55.00
44117;DHT22;29781;49.480;8.512;2022-07-17T13:50:29;28.10;55.00
44117;DHT22;29781;49.480;8.512;2022-07-17T13:52:55;28.20;54.30
44117;DHT22;29781;49.480;8.512;2022-07-17T13:55:21;28.20;53.20
44117;DHT22;29781;49.480;8.512;2022-07-17T13:57:47;28.10;52.60
44117;DHT22;29781;49.480;8.512;2022-07-17T14:00:15;28.20;53.50
44117;DHT22;29781;49.480;8.512;2022-07-17T14:02:43;28.30;53.30
44117;DHT22;29781;49.480;8.512;2022-07-17T14:05:09;28.20;52.30
44117;DHT22;29781;49.480;8.512;2022-07-17T14:07:35;28.30;52.90
44117;DHT22;29781;49.480;8.512;2022-07-17T14:10:01;28.40;53.70
44117;DHT22;29781;49.480;8.512;2022-07-17T14:12:27;28.40;52.00
44117;DHT22;29781;49.480;8.512;2022-07-17T14:14:53;28.50;51.30
44117;DHT22;29781;49.480;8.512;2022-07-17T14:17:19;28.40;52.10
44117;DHT22;29781;49.480;8.512;2022-07-17T14:19:45;28.40;53.60
44117;DHT22;29781;49.480;8.512;2022-07-17T14:22:12;28.40;53.10
44117;DHT22;29781;49.480;8.512;2022-07-17T14:24:37;28.30;52.80
44117;DHT22;29781;49.480;8.512;2022-07-17T14:27:03;28.30;53.10
44117;DHT22;29781;49.480;8.512;2022-07-17T14:29:29;28.60;54.00
44117;DHT22;29781;49.480;8.512;2022-07-17T14:31:55;28.60;53.60
44117;DHT22;29781;49.480;8.512;2022-07-17T14:34:21;28.70;52.70
44117;DHT22;29781;49.480;8.512;2022-07-17T14:36:47;28.60;51.60
44117;DHT22;29781;49.480;8.512;2022-07-17T14:39:14;28.50;52.10
44117;DHT22;29781;49.480;8.512;2022-07-17T14:41:41;28.50;52.90
44117;DHT22;29781;49.480;8.512;2022-07-17T14:44:07;28.60;52.50
44117;DHT22;29781;49.480;8.512;2022-07-17T14:46:32;28.50;52.10
44117;DHT22;29781;49.480;8.512;2022-07-17T14:48:59;28.50;52.90
44117;DHT22;29781;49.480;8.512;2022-07-17T14:51:24;28.50;52.30
44117;DHT22;29781;49.480;8.512;2022-07-17T14:53:50;28.40;51.80
44117;DHT22;29781;49.480;8.512;2022-07-17T14:56:15;28.40;51.80
44117;DHT22;29781;49.480;8.512;2022-07-17T14:58:41;28.40;52.10
44117;DHT22;29781;49.480;8.512;2022-07-17T15:01:07;28.50;52.60
44117;DHT22;29781;49.480;8.512;2022-07-17T15:03:33;28.60;52.70
44117;DHT22;29781;49.480;8.512;2022-07-17T15:05:59;28.60;51.90
44117;DHT22;29781;49.480;8.512;2022-07-17T15:08:25;28.50;50.80
44117;DHT22;29781;49.480;8.512;2022-07-17T15:10:51;28.50;51.70
44117;DHT22;29781;49.480;8.512;2022-07-17T15:13:17;28.50;51.70
44117;DHT22;29781;49.480;8.512;2022-07-17T15:15:44;28.50;51.10
44117;DHT22;29781;49.480;8.512;2022-07-17T15:18:10;28.60;51.20
44117;DHT22;29781;49.480;8.512;2022-07-17T15:20:36;28.60;50.20
44117;DHT22;29781;49.480;8.512;2022-07-17T15:23:02;28.50;50.30
44117;DHT22;29781;49.480;8.512;2022-07-17T15:25:28;28.50;50.60
44117;DHT22;29781;49.480;8.512;2022-07-17T15:27:53;28.60;50.80
44117;DHT22;29781;49.480;8.512;2022-07-17T15:30:19;28.60;51.40
44117;DHT22;29781;49.480;8.512;2022-07-17T15:32:45;28.70;50.20
44117;DHT22;29781;49.480;8.512;2022-07-17T15:35:12;28.80;50.90
44117;DHT22;29781;49.480;8.512;2022-07-17T15:37:38;28.80;51.60
44117;DHT22;29781;49.480;8.512;2022-07-17T15:40:05;28.80;49.70
44117;DHT22;29781;49.480;8.512;2022-07-17T15:42:31;28.80;50.40